Time;durP1;ratioP1;P1;durP2;ratioP2;P2;SDS_P1;SDS_P2;PMS_P1;PMS_P2;Temp;Humidity;BMP_temperature;BMP_pressure;BME280_temperature;BME280_humidity;BME280_pressure;Samples;Min_cycle;Max_cycle;Signal;HPM_P1;HPM_P2
2022/08/11 00:04:04;;;;;;;5.10;1.58;;;23.90;53.30;;;;;;10514539;28;20027;-52
2022/08/11 00:09:13;;;;;;;1.98;1.42;;;23.90;53.20;;;;;;10513960;28;20467;-53
2022/08/11 00:14:25;;;;;;;2.33;1.70;;;23.90;53.30;;;;;;10514469;28;20095;-53
2022/08/11 00:19:29;;;;;;;2.50;1.38;;;23.90;53.30;;;;;;10533490;28;20035;-52
2022/08/11 00:24:36;;;;;;;1.35;1.25;;;23.90;53.30;;;;;;10540327;28;20721;-53
2022/08/11 00:29:37;;;;;;;3.20;1.55;;;23.90;53.20;;;;;;10539725;28;20040;-51
2022/08/11 00:34:39;;;;;;;2.65;1.73;;;23.90;53.20;;;;;;10521438;28;20012;-53
2022/08/11 00:39:50;;;;;;;1.77;1.48;;;23.90;53.30;;;;;;10521185;28;20138;-53
2022/08/11 00:45:26;;;;;;;2.45;1.58;;;23.90;53.30;;;;;;10510031;28;20682;-54
2022/08/11 00:50:36;;;;;;;1.77;1.40;;;23.90;53.20;;;;;;10521275;28;20035;-52
2022/08/11 00:56:11;;;;;;;1.55;1.45;;;23.90;53.30;;;;;;10539177;28;20028;-52
2022/08/11 01:01:14;;;;;;;2.85;1.45;;;23.90;53.30;;;;;;10539083;28;20040;-52
2022/08/11 01:06:49;;;;;;;3.75;1.95;;;23.90;53.40;;;;;;10520362;28;20294;-52
2022/08/11 01:12:33;;;;;;;1.67;1.48;;;23.90;53.30;;;;;;10522133;28;20101;-53
2022/08/11 01:18:30;;;;;;;1.77;1.20;;;23.90;53.30;;;;;;10525799;28;20143;-50
2022/08/11 01:24:34;;;;;;;1.98;1.50;;;23.90;53.30;;;;;;10537677;28;20059;-49
2022/08/11 01:30:38;;;;;;;2.00;1.48;;;23.80;53.30;;;;;;10529665;28;20028;-51
2022/08/11 01:35:47;;;;;;;2.70;1.65;;;23.80;53.20;;;;;;10521826;28;20374;-51
2022/08/11 01:44:36;;;;;;;2.58;1.65;;;23.80;53.30;;;;;;10536880;28;20048;-53
2022/08/11 01:47:05;;;;;;;2.58;1.55;;;23.80;53.30;;;;;;10524683;28;20495;-53
2022/08/11 01:52:06;;;;;;;1.63;1.40;;;23.80;53.40;;;;;;10535920;28;20032;-52
2022/08/11 01:57:37;;;;;;;1.85;1.63;;;23.80;53.40;;;;;;10535851;28;20028;-52
2022/08/11 02:03:11;;;;;;;2.63;2.25;;;23.80;53.30;;;;;;10535980;28;20036;-53
2022/08/11 02:08:50;;;;;;;3.35;1.55;;;23.80;53.30;;;;;;10519403;28;20032;-52
2022/08/11 02:14:19;;;;;;;2.78;1.42;;;23.80;53.40;;;;;;10519189;28;20054;-52
2022/08/11 02:25:38;;;;;;;3.45;1.92;;;23.80;53.50;;;;;;10535580;28;20036;-53
2022/08/11 02:36:36;;;;;;;2.57;1.67;;;23.70;53.50;;;;;;10521186;28;20039;-53
2022/08/11 02:53:39;;;;;;;2.83;2.03;;;23.80;53.50;;;;;;10509445;28;20286;-53
2022/08/11 03:04:39;;;;;;;4.15;2.13;;;23.70;53.60;;;;;;10520323;28;20261;-52
2022/08/11 03:09:52;;;;;;;2.85;1.77;;;23.70;53.60;;;;;;10514111;28;20532;-53
2022/08/11 03:20:30;;;;;;;2.25;1.83;;;23.70;53.70;;;;;;10518548;28;20052;-53
2022/08/11 03:26:37;;;;;;;2.53;2.03;;;23.70;53.60;;;;;;10533084;28;20115;-52
2022/08/11 03:31:55;;;;;;;1.52;1.42;;;23.70;53.60;;;;;;10529850;28;20036;-52
2022/08/11 03:37:50;;;;;;;1.55;1.45;;;23.70;53.70;;;;;;10503019;28;20049;-53
2022/08/11 03:43:20;;;;;;;3.10;1.90;;;23.70;53.60;;;;;;10532838;28;20422;-53
2022/08/11 03:48:52;;;;;;;2.78;1.70;;;23.70;53.70;;;;;;10511774;28;20039;-53
2022/08/11 03:54:18;;;;;;;2.40;1.63;;;23.60;53.70;;;;;;10524071;28;20031;-53
2022/08/11 03:59:41;;;;;;;2.90;2.00;;;23.60;53.80;;;;;;10528475;28;20352;-52
2022/08/11 04:05:41;;;;;;;1.98;1.50;;;23.60;53.80;;;;;;10545133;28;20032;-52
2022/08/11 04:11:03;;;;;;;;;;;23.60;53.80;;;;;;10540138;28;20153;-53
2022/08/11 04:16:41;;;;;;;2.10;1.60;;;23.60;53.80;;;;;;10515781;28;19912;-52
2022/08/11 04:22:21;;;;;;;3.20;1.90;;;23.60;53.90;;;;;;10529134;28;20028;-52
2022/08/11 04:27:41;;;;;;;2.70;1.73;;;23.60;53.90;;;;;;10541311;28;20540;-53
2022/08/11 04:32:58;;;;;;;2.88;1.55;;;23.60;54.00;;;;;;10522432;28;20028;-53
2022/08/11 04:38:43;;;;;;;2.75;2.28;;;23.60;54.00;;;;;;10538519;28;20054;-52
2022/08/11 04:43:54;;;;;;;2.67;1.90;;;23.60;54.00;;;;;;10534428;28;20024;-53
2022/08/11 05:02:03;;;;;;;6.20;2.03;;;23.70;55.40;;;;;;10545918;28;20036;-53
2022/08/11 05:07:38;;;;;;;7.30;2.50;;;23.80;55.90;;;;;;10539447;28;20036;-54
2022/08/11 05:27:09;;;;;;;7.32;2.30;;;23.80;55.90;;;;;;10538477;28;20063;-52
2022/08/11 05:35:04;;;;;;;10.13;3.00;;;23.70;55.70;;;;;;10538004;28;20055;-52
2022/08/11 05:56:19;;;;;;;5.32;2.30;;;23.60;55.80;;;;;;10531964;28;20039;-52
2022/08/11 06:01:32;;;;;;;10.90;2.83;;;23.60;55.90;;;;;;10536813;28;20535;-52
2022/08/11 06:06:33;;;;;;;8.70;2.78;;;23.60;55.90;;;;;;10517966;28;20032;-52
2022/08/11 06:11:42;;;;;;;8.52;3.45;;;23.60;55.80;;;;;;10515990;28;20503;-53
2022/08/11 06:16:48;;;;;;;7.28;3.08;;;23.60;56.40;;;;;;10533550;28;20067;-54
2022/08/11 06:21:51;;;;;;;6.95;2.65;;;23.60;56.10;;;;;;10514928;28;20025;-53
2022/08/11 06:26:54;;;;;;;7.22;3.05;;;23.60;56.00;;;;;;10516400;28;20039;-53
2022/08/11 06:31:59;;;;;;;6.07;2.88;;;23.60;56.00;;;;;;10513422;28;20020;-52
2022/08/11 06:37:45;;;;;;;5.50;2.72;;;23.60;56.10;;;;;;10513735;28;20047;-53
2022/08/11 06:43:18;;;;;;;5.07;2.30;;;23.60;56.10;;;;;;10524656;28;20044;-53
2022/08/11 06:48:23;;;;;;;5.60;2.90;;;23.60;56.00;;;;;;10533343;28;20374;-53
2022/08/11 06:53:24;;;;;;;4.72;2.72;;;23.60;56.10;;;;;;10515307;28;20038;-52
2022/08/11 07:04:06;;;;;;;3.88;2.72;;;23.60;56.10;;;;;;10518805;28;20459;-53
2022/08/11 07:31:07;;;;;;;3.95;2.35;;;23.60;56.00;;;;;;10508973;28;20425;-53
2022/08/11 07:36:11;;;;;;;5.78;3.03;;;23.50;56.00;;;;;;10514209;28;20380;-52
2022/08/11 07:41:21;;;;;;;4.50;2.67;;;23.60;55.50;;;;;;10513960;28;20044;-52
2022/08/11 08:18:27;;;;;;;4.35;2.58;;;23.70;55.50;;;;;;10532023;28;20028;-54
2022/08/11 08:23:34;;;;;;;5.97;2.90;;;23.80;55.60;;;;;;10512865;28;20352;-54
2022/08/11 08:28:35;;;;;;;7.30;3.55;;;23.80;55.60;;;;;;10513867;28;20036;-53
2022/08/11 08:33:41;;;;;;;4.57;3.03;;;23.80;55.50;;;;;;10495856;28;20667;-53
2022/08/11 08:38:55;;;;;;;4.70;3.13;;;23.80;55.60;;;;;;10513161;28;20113;-53
2022/08/11 08:44:01;;;;;;;7.82;4.07;;;23.80;55.50;;;;;;10520302;28;20030;-54
2022/08/11 08:49:03;;;;;;;5.25;3.25;;;23.80;55.80;;;;;;10520523;28;20035;-54
2022/08/11 08:54:19;;;;;;;6.45;3.03;;;23.80;55.60;;;;;;10520746;28;20447;-54
2022/08/11 08:59:24;;;;;;;8.70;2.95;;;23.80;55.60;;;;;;10521465;28;20036;-54
2022/08/11 09:04:27;;;;;;;11.73;3.67;;;23.90;55.80;;;;;;10506664;28;20092;-54
2022/08/11 09:09:30;;;;;;;5.00;3.15;;;23.80;55.60;;;;;;10519385;28;20020;-54
2022/08/11 09:20:08;;;;;;;6.10;4.15;;;23.90;55.50;;;;;;10521928;28;20433;-54
2022/08/11 09:30:28;;;;;;;;;;;23.90;55.50;;;;;;10530166;28;20559;-54
2022/08/11 09:35:35;;;;;;;9.18;4.53;;;23.90;55.70;;;;;;10518438;28;19908;-53
2022/08/11 09:40:36;;;;;;;8.45;3.63;;;23.90;55.80;;;;;;10517825;28;20044;-52
2022/08/11 09:45:38;;;;;;;5.47;3.85;;;23.90;55.70;;;;;;10501391;28;20048;-54
2022/08/11 09:50:40;;;;;;;5.93;3.55;;;24.00;55.60;;;;;;10517419;28;20044;-54
2022/08/11 09:55:44;;;;;;;4.75;3.10;;;23.90;55.40;;;;;;10517733;28;20020;-53
2022/08/11 10:00:49;;;;;;;8.38;4.05;;;23.90;55.70;;;;;;10535709;28;20110;-54
2022/08/11 10:11:22;;;;;;;;;;;24.00;55.40;;;;;;10520763;28;20070;-54
2022/08/11 10:16:27;;;;;;;4.55;3.25;;;24.00;55.40;;;;;;10516829;28;20002;-53
2022/08/11 10:21:42;;;;;;;5.47;2.85;;;24.00;55.60;;;;;;10516679;28;20030;-54
2022/08/11 10:26:53;;;;;;;5.15;3.47;;;24.00;55.40;;;;;;10534581;28;20024;-54
2022/08/11 10:37:16;;;;;;;5.13;3.03;;;24.10;55.60;;;;;;10519230;28;20055;-53
2022/08/11 10:47:38;;;;;;;5.30;2.92;;;24.10;55.50;;;;;;10534113;28;20040;-52
2022/08/11 11:03:19;;;;;;;4.65;2.83;;;24.20;55.80;;;;;;10517262;28;20043;-54
2022/08/11 11:19:09;;;;;;;4.45;2.78;;;24.30;56.30;;;;;;10504790;28;20032;-53
2022/08/11 11:24:44;;;;;;;3.53;2.65;;;24.30;56.60;;;;;;10514164;28;20031;-53
2022/08/11 11:30:07;;;;;;;4.22;2.63;;;24.30;56.50;;;;;;10532261;28;20028;-53
2022/08/11 11:35:25;;;;;;;3.22;2.15;;;24.30;56.70;;;;;;10532168;28;20024;-54
2022/08/11 11:40:27;;;;;;;5.95;2.50;;;24.40;56.70;;;;;;10531818;28;20714;-54
2022/08/11 11:45:28;;;;;;;3.10;2.45;;;24.30;56.60;;;;;;10513765;28;20040;-53
2022/08/11 11:50:36;;;;;;;4.75;2.50;;;24.40;56.60;;;;;;10514049;28;20024;-53
2022/08/11 11:55:37;;;;;;;3.38;2.78;;;24.40;56.60;;;;;;10513222;28;20028;-54
2022/08/11 12:06:00;;;;;;;4.78;2.80;;;24.40;56.50;;;;;;10516557;28;20043;-54
2022/08/11 12:16:24;;;;;;;2.80;2.10;;;24.40;56.50;;;;;;10537911;28;20063;-53
2022/08/11 12:21:27;;;;;;;3.42;2.55;;;24.40;56.50;;;;;;10521271;28;20028;-53
2022/08/11 12:31:48;;;;;;;3.38;2.67;;;24.40;56.40;;;;;;10523657;28;20040;-53
2022/08/11 12:37:04;;;;;;;3.88;2.42;;;24.40;56.20;;;;;;10521073;28;20422;-52
2022/08/11 12:51:55;;;;;;;2.60;2.35;;;24.50;56.20;;;;;;10538835;28;20115;-52
2022/08/11 12:52:52;;;;;;;2.63;2.30;;;24.50;56.20;;;;;;10538207;28;20028;-54
2022/08/11 13:08:38;;;;;;;3.55;2.40;;;24.60;56.60;;;;;;10522265;28;20403;-54
2022/08/11 13:13:41;;;;;;;3.15;2.22;;;24.60;56.00;;;;;;10519112;28;20044;-54
2022/08/11 13:18:43;;;;;;;3.67;2.03;;;24.60;55.90;;;;;;10518771;28;20030;-54
2022/08/11 13:23:44;;;;;;;4.35;2.60;;;24.60;55.80;;;;;;10518923;28;20733;-53
2022/08/11 13:28:45;;;;;;;3.28;2.50;;;24.60;55.80;;;;;;10517958;28;20067;-53
2022/08/11 13:33:51;;;;;;;3.38;2.15;;;24.60;55.90;;;;;;10536232;28;20032;-53
2022/08/11 13:38:59;;;;;;;3.47;2.45;;;24.60;55.90;;;;;;10518674;28;20028;-54
2022/08/11 13:44:00;;;;;;;2.40;2.00;;;24.60;55.90;;;;;;10537025;28;20020;-54
2022/08/11 13:49:02;;;;;;;2.33;2.00;;;24.60;55.80;;;;;;10535627;28;20379;-53
2022/08/11 13:54:09;;;;;;;2.88;2.28;;;24.60;55.90;;;;;;10517280;28;20028;-54
2022/08/11 13:59:13;;;;;;;3.78;2.72;;;24.60;55.90;;;;;;10517700;28;20032;-54
2022/08/11 14:04:24;;;;;;;2.72;2.03;;;24.60;55.90;;;;;;10517264;28;20046;-53
2022/08/11 14:09:38;;;;;;;2.75;2.40;;;24.60;55.50;;;;;;10534754;28;20028;-53
2022/08/11 14:14:41;;;;;;;3.13;2.40;;;24.60;55.50;;;;;;10517728;28;20032;-54
2022/08/11 14:19:45;;;;;;;2.67;1.88;;;24.50;55.80;;;;;;10516610;28;20028;-53
2022/08/11 14:24:48;;;;;;;3.90;2.40;;;24.50;55.60;;;;;;10516370;28;20115;-54
2022/08/11 14:29:49;;;;;;;2.88;2.33;;;24.50;55.60;;;;;;10534540;28;20042;-53
2022/08/11 14:34:50;;;;;;;2.92;2.42;;;24.50;55.40;;;;;;10515891;28;20039;-53
2022/08/11 14:39:59;;;;;;;3.08;2.15;;;24.50;55.60;;;;;;10533562;28;20047;-53
2022/08/11 14:50:33;;;;;;;3.70;2.50;;;24.50;55.80;;;;;;10519858;28;19912;-52
2022/08/11 15:01:00;;;;;;;2.90;1.95;;;24.50;55.80;;;;;;10533825;28;20036;-52
2022/08/11 15:06:03;;;;;;;2.63;1.90;;;24.50;55.80;;;;;;10514568;28;20036;-53
2022/08/11 15:12:07;;;;;;;2.63;2.10;;;24.50;55.70;;;;;;10512608;28;20024;-53
2022/08/11 15:38:00;;;;;;;5.05;4.15;;;24.50;55.60;;;;;;10514908;28;20036;-52
2022/08/11 15:48:31;;;;;;;3.20;2.80;;;24.60;56.30;;;;;;10505036;28;20429;-54
2022/08/11 15:53:44;;;;;;;2.47;2.22;;;24.60;56.10;;;;;;10531375;28;20036;-54
2022/08/11 16:04:20;;;;;;;2.70;2.25;;;24.60;55.30;;;;;;10516903;28;20048;-53
2022/08/11 16:09:46;;;;;;;12.43;2.88;;;24.50;55.70;;;;;;10512827;28;20479;-51
2022/08/11 16:20:20;;;;;;;16.85;5.68;;;24.60;55.20;;;;;;10530750;28;20379;-54
2022/08/11 16:25:23;;;;;;;12.30;4.90;;;24.70;50.30;;;;;;10509298;28;20383;-55
2022/08/11 16:30:27;;;;;;;19.65;4.35;;;24.90;45.60;;;;;;10506002;28;20032;-56
2022/08/11 16:40:51;;;;;;;15.98;4.47;;;25.00;54.40;;;;;;10507653;28;20092;-54
2022/08/11 16:51:14;;;;;;;18.80;4.13;;;25.00;53.90;;;;;;10528986;28;20040;-54
2022/08/11 16:56:20;;;;;;;9.73;3.60;;;25.00;53.60;;;;;;10530828;28;20082;-53
2022/08/11 17:01:23;;;;;;;7.57;3.85;;;25.00;53.50;;;;;;10532441;28;20038;-54
2022/08/11 17:17:24;;;;;;;9.00;3.58;;;24.80;52.60;;;;;;10537486;28;20024;-54
2022/08/11 17:27:47;;;;;;;6.70;3.38;;;24.80;52.70;;;;;;10522620;28;20048;-53
2022/08/11 17:38:19;;;;;;;12.70;4.30;;;24.80;51.60;;;;;;10519889;28;20056;-54
2022/08/11 17:48:42;;;;;;;;;;;24.80;49.40;;;;;;10522219;28;20047;-54
2022/08/11 18:04:27;;;;;;;13.88;3.40;;;24.80;48.70;;;;;;10524228;28;20047;-52
